Ana Sayfa
METAR-TAF:

METAR-TAF

Havaalanları :

Yap, Mikronezya

Enlem: 09-29N, Boylam: 138-05E, yükseklik: 28 m

Güncel hava durumu gözlemi

Rapor saat 19:50 UTC de 22 dakika önce yapıldı.
Rüzgar değişken yönden 5 kt
Sıcaklık 27°C
Nem 89%
Basınç 1009 hPa
Görüş mesafesi: 19.3 km
1600 ft yükseklikte az bulutlu
30000 ft yükseklikte parçalı çok bulutlu

METAR: PTYA 241950Z VRB05KT 12SM FEW016 BKN300 27/25 A2980 RMK SLP093 T02660254

Saat: 06:12 (20:12 UTC)

Tahmin

Rapor saat 17:35 UTC de 2 saat ve 37 dakika önce yapıldı.
Ayın 24'si saat 18 UTC'den ayın 25'si saat 18 UTC'ye kadar geçerli Tahmin
Rüzgar değişken yönden 5 kt
Görüş mesafesi: 10 km
1600 ft yükseklikte az bulutlu

TAF: PTYA 241735Z 2418/2518 VRB05KT P6SM FEW016

4.000'den fazla havaalanı için hava durumu gözlemleri ve tahminleri (METAR ve TAF raporları).

Kullanılabilir istasyonlar harita üzerinde sarı ve kırmızı noktalarla gösterilir.

İstasyonun adını görmek için fareyi noktanın üzerinde gezdirin.

Sonrasında hava gözlem ve tahminlerini görmek için tıklayın.

Haritayı değiştirmek için: yaklaştırmak için siyah artı işaretli yeşil düğmeye ve uzaklaştırmak için de eksi işaretli düğmeye hızla tıklayın; bitişik haritalar için yeşil okları kullanın.


METAR-TAF: